createdAt,value
2022-10-24T00:00:11.290Z,96.82
2022-10-24T00:01:11.255Z,96.42
2022-10-24T00:02:11.244Z,96.42
2022-10-24T00:03:11.332Z,96.62
2022-10-24T00:04:11.225Z,96.62
2022-10-24T00:05:11.212Z,96.57
2022-10-24T00:06:11.216Z,96.62
2022-10-24T00:07:11.188Z,96.88
2022-10-24T00:08:11.197Z,96.51
2022-10-24T00:09:11.176Z,96.31
2022-10-24T00:10:11.175Z,96.92
2022-10-24T00:11:11.145Z,96.62
2022-10-24T00:12:11.209Z,96.57
2022-10-24T00:13:11.157Z,96.27
2022-10-24T00:14:11.107Z,96.78
2022-10-24T00:15:11.108Z,96.82
2022-10-24T00:16:11.087Z,96.01
2022-10-24T00:17:11.083Z,95.76
2022-10-24T00:18:11.092Z,95.56
2022-10-24T00:19:11.055Z,95.66
2022-10-24T00:20:11.042Z,95.86
2022-10-24T00:21:11.033Z,95.21
2022-10-24T00:22:11.021Z,95.46
2022-10-24T00:23:11.025Z,95.36
2022-10-24T00:24:11.003Z,95.11
2022-10-24T00:25:10.996Z,94.91
2022-10-24T00:26:10.988Z,95.01
2022-10-24T00:27:10.969Z,95.36
2022-10-24T00:28:10.979Z,95.21
2022-10-24T00:29:11.002Z,95.01
2022-10-24T00:30:10.936Z,94.81
2022-10-24T00:31:10.931Z,94.50
2022-10-24T00:32:10.907Z,94.40
2022-10-24T07:02:46.940Z,79.17
2022-10-24T07:03:46.482Z,78.88
2022-10-24T07:04:46.454Z,78.77
2022-10-24T07:05:46.442Z,78.33
2022-10-24T07:06:46.430Z,78.13
2022-10-24T07:07:46.580Z,78.23
2022-10-24T07:08:46.433Z,77.73
2022-10-24T07:09:46.396Z,77.73
2022-10-24T07:10:46.384Z,77.62
2022-10-24T07:11:46.383Z,77.62
2022-10-24T07:12:46.757Z,77.62
2022-10-24T07:13:46.350Z,78.03
2022-10-24T07:14:46.364Z,77.12
2022-10-24T07:15:46.332Z,77.73
2022-10-24T07:16:46.316Z,76.88
2022-10-24T07:17:46.314Z,76.88
2022-10-24T07:18:46.312Z,76.88
2022-10-24T07:19:46.281Z,76.68
2022-10-24T07:20:46.295Z,76.38
2022-10-24T07:21:46.265Z,76.58
2022-10-24T07:22:46.630Z,76.78
2022-10-24T07:23:46.237Z,76.58
2022-10-24T07:24:46.233Z,76.51
2022-10-24T07:25:46.221Z,76.48
2022-10-24T07:26:46.230Z,75.67
2022-10-24T07:27:46.198Z,76.44
2022-10-24T07:28:46.190Z,75.57
2022-10-24T07:29:46.172Z,75.74
2022-10-24T07:30:46.161Z,75.57
2022-10-24T07:31:46.154Z,75.77
2022-10-24T07:32:46.548Z,75.34
2022-10-24T07:33:46.139Z,75.67
2022-10-24T07:34:46.152Z,75.57
2022-10-24T07:35:46.110Z,76.28
2022-10-24T07:36:46.100Z,75.16
2022-10-24T07:37:46.423Z,75.74
2022-10-24T07:38:46.102Z,75.87
2022-10-24T07:39:46.059Z,75.37
2022-10-24T07:40:46.053Z,76.24
2022-10-24T07:41:46.045Z,75.23
2022-10-24T07:42:46.028Z,75.54
2022-10-24T07:43:46.021Z,76.24
2022-10-24T07:44:46.034Z,75.34
2022-10-24T07:45:49.122Z,75.74
2022-10-24T07:46:46.989Z,75.63
2022-10-24T07:47:46.289Z,76.44
2022-10-24T07:48:45.970Z,75.54
2022-10-24T07:49:45.954Z,76.24
2022-10-24T07:50:45.982Z,75.34
2022-10-24T07:51:45.930Z,75.54
2022-10-24T07:52:45.917Z,75.54
2022-10-24T07:53:45.908Z,75.23
2022-10-24T07:54:45.907Z,74.83
2022-10-24T07:55:45.881Z,74.83
2022-10-24T07:56:45.881Z,74.43
2022-10-24T07:57:46.065Z,74.90
2022-10-24T07:58:45.845Z,74.49
2022-10-24T07:59:45.837Z,74.59
2022-10-24T08:00:45.821Z,74.49
2022-10-24T08:01:45.824Z,75.10
2022-10-24T08:02:45.930Z,74.39
2022-10-24T08:03:45.793Z,74.59
2022-10-24T08:04:45.775Z,74.69
2022-10-24T08:05:45.765Z,74.99
2022-10-24T08:06:45.766Z,74.73
2022-10-24T08:07:55.646Z,74.79
2022-10-24T08:08:46.756Z,74.49
2022-10-24T08:09:45.725Z,75.20
2022-10-24T08:10:45.750Z,74.90
2022-10-24T08:11:45.692Z,74.49
2022-10-24T08:12:46.076Z,74.49
2022-10-24T08:13:45.673Z,74.73
2022-10-24T08:14:45.680Z,74.90
2022-10-24T08:15:45.643Z,74.99
2022-10-24T08:16:45.640Z,75.60
2022-10-24T08:17:45.629Z,75.30
2022-10-24T08:18:45.608Z,75.40
2022-10-24T08:19:45.600Z,74.69
2022-10-24T08:20:45.612Z,74.69
2022-10-24T08:21:45.577Z,74.69
2022-10-24T08:22:45.956Z,74.69
2022-10-24T08:23:45.560Z,74.69
2022-10-24T08:24:45.546Z,74.69
2022-10-24T08:25:45.537Z,74.46
2022-10-24T08:26:45.550Z,74.69
2022-10-24T08:27:45.521Z,74.39
2022-10-24T08:28:45.503Z,74.66
2022-10-24T08:29:45.490Z,74.35
2022-10-24T08:30:45.479Z,74.35
2022-10-24T08:31:45.461Z,74.26
2022-10-24T08:32:45.680Z,73.65
2022-10-24T08:33:45.445Z,73.25
2022-10-24T08:34:45.438Z,72.91
2022-10-24T08:35:45.431Z,73.52
2022-10-24T08:36:45.412Z,73.21
2022-10-24T08:37:45.411Z,72.91
2022-10-24T08:38:45.422Z,72.81
2022-10-24T08:39:45.377Z,72.91
2022-10-24T08:40:45.366Z,72.71
2022-10-24T08:41:45.348Z,72.71
2022-10-24T08:42:45.594Z,73.11
2022-10-24T08:43:45.333Z,73.21
2022-10-24T08:44:45.334Z,73.11
2022-10-24T08:45:45.312Z,73.11
2022-10-24T08:46:45.291Z,73.41
2022-10-24T08:47:45.285Z,73.38
2022-10-24T08:48:45.274Z,72.31
2022-10-24T08:49:47.924Z,71.97
2022-10-24T08:50:46.265Z,72.67
2022-10-24T08:51:45.237Z,72.47
2022-10-24T08:52:45.589Z,72.07
2022-10-24T08:53:45.213Z,72.03
2022-10-24T08:54:45.232Z,71.94
2022-10-24T08:55:49.624Z,71.63
2022-10-24T08:56:46.207Z,71.13
2022-10-24T08:57:45.180Z,71.53
2022-10-24T08:58:45.157Z,71.97
2022-10-24T08:59:45.156Z,72.03
2022-10-24T09:00:45.132Z,72.03
2022-10-24T09:01:45.217Z,71.73
2022-10-24T09:02:45.722Z,71.83
2022-10-24T09:04:00.550Z,71.83
2022-10-24T09:04:46.098Z,71.90
2022-10-24T09:05:45.079Z,71.09
2022-10-24T09:06:45.084Z,70.56
2022-10-24T09:07:45.322Z,69.92
2022-10-24T09:08:45.064Z,69.92
2022-10-24T09:09:45.042Z,69.32
2022-10-24T09:10:45.050Z,68.92
2022-10-24T09:11:45.018Z,68.52
2022-10-24T09:12:45.004Z,69.09
2022-10-24T09:13:44.999Z,69.09
2022-10-24T09:14:44.999Z,68.59
2022-10-24T09:15:44.979Z,69.09
2022-10-24T09:16:44.953Z,68.55
2022-10-24T09:17:45.319Z,67.65
2022-10-24T09:18:44.929Z,67.85
2022-10-24T09:19:44.942Z,68.65
2022-10-24T09:20:44.938Z,68.76
2022-10-24T09:21:44.896Z,67.92
2022-10-24T09:22:44.890Z,67.82
2022-10-24T09:23:44.898Z,67.72
2022-10-24T09:24:44.865Z,67.61
2022-10-24T09:25:44.860Z,66.91
2022-10-24T09:26:44.890Z,66.88
2022-10-24T09:27:45.165Z,66.68
2022-10-24T09:28:44.816Z,66.65
2022-10-24T09:29:44.817Z,65.35
2022-10-24T09:30:44.797Z,64.54
2022-10-24T09:31:44.792Z,64.54
2022-10-24T09:32:44.789Z,64.95
2022-10-24T09:33:44.768Z,64.65
2022-10-24T09:34:44.749Z,64.81
2022-10-24T09:35:44.748Z,64.81
2022-10-24T09:36:44.731Z,64.78
2022-10-24T09:37:47.337Z,63.39
2022-10-24T09:38:44.783Z,63.51
2022-10-24T09:39:44.702Z,63.84
2022-10-24T09:40:44.692Z,64.75
2022-10-24T09:41:44.687Z,64.15
2022-10-24T09:42:44.682Z,64.54
2022-10-24T09:43:44.656Z,64.45
2022-10-24T09:44:44.652Z,64.62
2022-10-24T09:45:44.640Z,63.58
2022-10-24T09:46:44.619Z,63.56
2022-10-24T09:47:44.911Z,63.56
2022-10-24T09:48:44.604Z,63.19
2022-10-24T09:49:44.588Z,61.29
2022-10-24T09:50:44.592Z,61.69
2022-10-24T09:51:44.566Z,61.12
2022-10-24T09:52:44.554Z,61.92
2022-10-24T09:53:44.538Z,62.42
2022-10-24T09:54:44.523Z,61.99
2022-10-24T09:55:44.521Z,61.59
2022-10-24T09:56:44.528Z,61.73
2022-10-24T09:57:44.946Z,61.83
2022-10-24T09:58:44.498Z,60.44
2022-10-24T09:59:44.473Z,60.58
2022-10-24T10:00:44.464Z,59.81
2022-10-24T10:01:44.644Z,58.91
2022-10-24T10:02:44.466Z,59.94
2022-10-24T10:03:44.444Z,59.34
2022-10-24T10:04:44.409Z,60.06
2022-10-24T10:05:44.408Z,60.69
2022-10-24T10:06:44.389Z,60.72
2022-10-24T10:07:44.736Z,60.92
2022-10-24T10:08:44.380Z,61.05
2022-10-24T10:09:44.354Z,61.85
2022-10-24T10:10:44.350Z,61.68
2022-10-24T10:12:00.815Z,62.38
2022-10-24T10:12:45.317Z,62.98
2022-10-24T10:13:44.307Z,61.55
2022-10-24T10:14:44.362Z,62.02
2022-10-24T10:15:44.285Z,62.05
2022-10-24T10:16:44.320Z,61.62
2022-10-24T10:17:44.578Z,61.62
2022-10-24T10:18:44.256Z,61.79
2022-10-24T10:19:44.240Z,61.69
2022-10-24T10:20:44.251Z,60.69
2022-10-24T10:21:44.215Z,59.36
2022-10-24T10:22:44.203Z,60.16
2022-10-24T10:23:44.191Z,59.27
2022-10-24T10:24:44.180Z,58.99
2022-10-24T10:25:44.181Z,59.49
2022-10-24T10:26:44.191Z,59.49
2022-10-24T10:27:44.576Z,59.92
2022-10-24T10:28:44.143Z,60.82
2022-10-24T10:29:44.131Z,60.42
2022-10-24T10:30:44.151Z,60.15
2022-10-24T10:31:44.129Z,60.78
2022-10-24T10:32:44.110Z,61.05
2022-10-24T10:33:44.081Z,61.18
2022-10-24T10:34:44.077Z,60.88
2022-10-24T10:35:44.067Z,61.51
2022-10-24T10:36:44.062Z,62.44
2022-10-24T10:37:44.384Z,62.64
2022-10-24T10:38:44.069Z,62.74
2022-10-24T10:39:45.210Z,62.94
2022-10-24T10:40:44.015Z,62.94
2022-10-24T10:41:44.041Z,63.34
2022-10-24T10:42:44.384Z,63.45
2022-10-24T10:43:43.967Z,63.34
2022-10-24T10:44:43.973Z,63.34
2022-10-24T10:45:43.946Z,62.87
2022-10-24T10:46:43.965Z,63.40
2022-10-24T10:47:43.933Z,63.70
2022-10-24T10:48:43.921Z,64.40
2022-10-24T10:49:43.904Z,63.70
2022-10-24T10:50:43.918Z,63.00
2022-10-24T10:51:43.880Z,63.43
2022-10-24T10:52:44.311Z,63.93
2022-10-24T10:53:43.864Z,64.43
2022-10-24T10:54:43.854Z,63.73
2022-10-24T10:55:43.838Z,63.53
2022-10-24T10:56:43.847Z,64.24
2022-10-24T10:57:43.813Z,63.84
2022-10-24T10:58:43.802Z,64.24
2022-10-24T10:59:43.791Z,63.84
2022-10-24T11:00:43.779Z,64.47
2022-10-24T11:01:43.875Z,64.07
2022-10-24T11:02:45.414Z,64.37
2022-10-24T11:03:43.744Z,64.14
2022-10-24T11:04:43.742Z,64.74
2022-10-24T11:05:43.722Z,64.24
2022-10-24T11:06:43.719Z,64.64
2022-10-24T11:07:44.007Z,64.54
2022-10-24T11:08:43.707Z,64.24
2022-10-24T11:09:43.683Z,64.14
2022-10-24T11:10:43.672Z,64.94
2022-10-24T11:11:43.653Z,64.64
2022-10-24T11:12:43.643Z,64.43
2022-10-24T11:13:43.640Z,64.54
2022-10-24T11:14:43.638Z,64.97
2022-10-24T11:15:43.609Z,65.04
2022-10-24T11:16:43.610Z,64.34
2022-10-24T11:17:44.018Z,64.74
2022-10-24T11:18:43.598Z,64.74
2022-10-24T11:19:43.569Z,65.34
2022-10-24T11:20:43.584Z,64.24
2022-10-24T11:21:43.541Z,65.47
2022-10-24T11:22:43.538Z,66.05
2022-10-24T11:24:43.505Z,65.94
2022-10-24T11:25:43.494Z,65.64
2022-10-24T11:26:43.517Z,64.94
2022-10-24T11:27:43.824Z,65.14
2022-10-24T11:28:43.465Z,65.47
2022-10-24T11:29:43.451Z,65.54
2022-10-24T11:30:43.441Z,65.94
2022-10-24T11:31:43.427Z,65.94
2022-10-24T11:32:43.753Z,66.08
2022-10-24T11:33:43.411Z,65.97
2022-10-24T11:34:43.413Z,65.67
2022-10-24T11:35:43.383Z,65.57
2022-10-24T11:36:43.373Z,65.57
2022-10-24T11:37:43.363Z,65.77
2022-10-24T11:38:43.376Z,65.64
2022-10-24T11:39:43.339Z,65.54
2022-10-24T11:40:43.329Z,66.14
2022-10-24T11:41:43.323Z,66.24
2022-10-24T11:42:43.624Z,65.44
2022-10-24T11:43:43.300Z,64.77
2022-10-24T11:44:43.310Z,65.57
2022-10-24T11:45:43.277Z,65.07
2022-10-24T11:46:43.265Z,65.77
2022-10-24T11:47:43.245Z,65.77
2022-10-24T11:48:43.302Z,66.47
2022-10-24T11:49:43.230Z,65.70
2022-10-24T11:50:43.257Z,65.47
2022-10-24T11:51:43.207Z,65.57
2022-10-24T11:52:43.431Z,65.67
2022-10-24T11:53:43.184Z,65.88
2022-10-24T11:54:43.168Z,66.11
2022-10-24T11:55:43.165Z,66.00
2022-10-24T11:56:43.170Z,66.08
2022-10-24T11:57:43.514Z,65.80
2022-10-24T11:58:43.123Z,66.41
2022-10-24T11:59:43.438Z,66.78
2022-10-24T12:00:43.106Z,66.91
2022-10-24T12:01:43.088Z,66.38
2022-10-24T12:02:43.154Z,66.51
2022-10-24T12:03:43.074Z,66.38
2022-10-24T12:04:43.061Z,66.61
2022-10-24T12:05:43.054Z,66.38
2022-10-24T12:06:43.054Z,67.08
2022-10-24T12:07:43.228Z,66.58
2022-10-24T12:08:43.041Z,66.38
2022-10-24T12:09:43.014Z,66.58
2022-10-24T12:10:42.987Z,66.71
2022-10-24T12:11:42.982Z,66.58
2022-10-24T12:12:42.985Z,66.08
2022-10-24T12:13:42.952Z,65.77
2022-10-24T12:14:42.972Z,65.88
2022-10-24T12:15:42.950Z,66.41
2022-10-24T12:16:42.920Z,66.51
2022-10-24T12:17:43.352Z,66.71
2022-10-24T12:18:42.905Z,67.01
2022-10-24T12:19:43.744Z,66.91
2022-10-24T12:20:42.893Z,66.81
2022-10-24T12:21:42.873Z,67.11
2022-10-24T12:22:43.125Z,66.81
2022-10-24T12:23:42.849Z,67.11
2022-10-24T12:24:42.837Z,67.82
2022-10-24T12:25:47.209Z,67.71
2022-10-24T12:26:43.837Z,67.82
2022-10-24T12:27:42.815Z,67.82
2022-10-24T12:28:42.785Z,67.71
2022-10-24T12:29:42.782Z,67.74
2022-10-24T12:30:42.835Z,67.82
2022-10-24T12:31:42.768Z,67.82
2022-10-24T12:32:42.929Z,67.85
2022-10-24T12:33:42.735Z,68.52
2022-10-24T12:34:48.813Z,69.25
2022-10-24T12:35:43.707Z,67.82
2022-10-24T12:36:42.695Z,68.55
2022-10-24T12:37:46.635Z,67.74
2022-10-24T12:38:42.721Z,67.55
2022-10-24T12:39:45.737Z,67.94
2022-10-24T12:40:42.656Z,67.85
2022-10-24T12:41:42.648Z,67.85
2022-10-24T12:42:42.847Z,68.05
2022-10-24T12:43:42.621Z,68.52
2022-10-24T12:44:42.622Z,68.25
2022-10-24T12:45:42.602Z,67.85
2022-10-24T12:46:42.601Z,68.62
2022-10-24T12:47:42.688Z,67.94
2022-10-24T12:48:42.585Z,69.45
2022-10-24T12:49:42.552Z,69.06
2022-10-24T12:50:42.563Z,68.65
2022-10-24T12:51:42.533Z,69.25
2022-10-24T12:52:42.773Z,68.55
2022-10-24T12:53:42.511Z,68.25
2022-10-24T12:54:42.522Z,67.71
2022-10-24T12:55:42.489Z,67.74
2022-10-24T12:56:44.851Z,68.05
2022-10-24T12:57:42.725Z,68.15
2022-10-24T12:58:42.450Z,67.94
2022-10-24T12:59:42.443Z,68.15
2022-10-24T13:00:42.435Z,67.44
2022-10-24T13:01:42.536Z,67.74
2022-10-24T13:02:42.473Z,67.85
2022-10-24T13:03:42.401Z,67.74
2022-10-24T13:04:42.380Z,67.85
2022-10-24T13:05:42.375Z,67.74
2022-10-24T13:06:45.446Z,68.15
2022-10-24T13:07:43.128Z,68.75
2022-10-24T13:08:42.355Z,68.05
2022-10-24T13:09:42.320Z,67.94
2022-10-24T13:10:42.335Z,68.35
2022-10-24T13:11:42.316Z,67.94
2022-10-24T13:12:42.299Z,68.75
2022-10-24T13:13:42.287Z,68.55
2022-10-24T13:14:42.385Z,67.65
2022-10-24T13:15:42.266Z,68.15
2022-10-24T13:16:42.255Z,68.15
2022-10-24T13:17:42.375Z,67.85
2022-10-24T13:18:42.225Z,67.85
2022-10-24T13:19:42.228Z,67.74
2022-10-24T13:20:42.240Z,67.71
2022-10-24T13:21:45.555Z,67.94
2022-10-24T13:22:42.417Z,67.85
2022-10-24T13:23:42.173Z,67.85
2022-10-24T13:24:42.165Z,67.24
2022-10-24T13:25:42.152Z,67.61
2022-10-24T13:26:42.184Z,67.85
2022-10-24T13:27:42.124Z,67.71
2022-10-24T13:28:42.126Z,67.65
2022-10-24T13:29:42.157Z,67.74
2022-10-24T13:30:44.778Z,68.41
2022-10-24T13:31:43.104Z,67.91
2022-10-24T13:32:42.106Z,67.74
2022-10-24T13:33:42.071Z,67.74
2022-10-24T13:34:42.056Z,67.71
2022-10-24T13:35:42.032Z,67.82
2022-10-24T13:36:42.027Z,68.21
2022-10-24T13:37:42.031Z,67.44
2022-10-24T13:38:42.028Z,68.12
2022-10-24T13:39:42.665Z,67.82
2022-10-24T13:40:42.068Z,67.71
2022-10-24T13:41:41.964Z,67.71
2022-10-24T13:42:42.016Z,67.82
2022-10-24T13:43:41.972Z,67.44
2022-10-24T13:44:41.931Z,67.74
2022-10-24T13:45:41.929Z,67.82
2022-10-24T13:46:41.917Z,67.74
2022-10-24T13:47:41.904Z,67.85
2022-10-24T13:48:41.896Z,67.61
2022-10-24T13:49:41.905Z,67.74
2022-10-24T13:50:41.966Z,67.82
2022-10-24T13:51:41.852Z,67.82
2022-10-24T13:52:44.575Z,68.12
2022-10-24T13:53:42.829Z,67.41
2022-10-24T13:54:41.818Z,67.85
2022-10-24T13:55:41.839Z,67.61
2022-10-24T13:56:41.817Z,67.74
2022-10-24T13:57:41.790Z,67.71
2022-10-24T13:58:44.184Z,67.82
2022-10-24T13:59:41.763Z,67.61
2022-10-24T14:00:41.760Z,67.71
2022-10-24T14:01:41.762Z,67.91
2022-10-24T14:02:41.784Z,67.71
2022-10-24T14:03:43.177Z,68.12
2022-10-24T14:04:41.715Z,67.82
2022-10-24T14:05:41.697Z,67.82
2022-10-24T14:06:41.684Z,67.71
2022-10-24T14:07:41.691Z,67.82
2022-10-24T14:08:41.670Z,67.82
2022-10-24T14:09:41.660Z,68.02
2022-10-24T14:10:41.648Z,68.02
2022-10-24T14:11:41.629Z,68.02
2022-10-24T14:12:41.623Z,67.82
2022-10-24T14:13:41.624Z,68.02
2022-10-24T14:14:41.623Z,68.32
2022-10-24T14:15:41.591Z,68.35
2022-10-24T14:16:41.592Z,68.21
2022-10-24T14:17:41.568Z,68.21
2022-10-24T14:18:41.553Z,68.52
2022-10-24T14:19:45.842Z,68.12
2022-10-24T14:20:42.538Z,67.94
2022-10-24T14:21:41.552Z,67.61
2022-10-24T14:22:41.504Z,67.71
2022-10-24T14:23:41.499Z,68.21
2022-10-24T14:24:41.484Z,67.65
2022-10-24T14:25:41.484Z,67.91
2022-10-24T14:26:41.475Z,67.61
2022-10-24T14:27:41.460Z,67.44
2022-10-24T14:28:41.454Z,67.94
2022-10-24T14:29:41.427Z,68.05
2022-10-24T14:30:41.441Z,68.25
2022-10-24T14:31:41.420Z,68.25
2022-10-24T14:32:41.390Z,67.82
2022-10-24T14:33:41.381Z,67.94
2022-10-24T14:34:41.376Z,67.82
2022-10-24T14:35:41.368Z,67.85
2022-10-24T14:36:41.363Z,67.74
2022-10-24T14:37:41.345Z,67.82
2022-10-24T14:38:41.325Z,67.91
2022-10-24T14:39:41.317Z,67.82
2022-10-24T14:40:41.302Z,68.21
2022-10-24T14:41:41.302Z,68.65
2022-10-24T14:42:41.285Z,68.65
2022-10-24T14:43:41.269Z,68.52
2022-10-24T14:44:41.255Z,68.65
2022-10-24T14:45:41.244Z,68.65
2022-10-24T14:46:41.268Z,69.06
2022-10-24T14:47:41.230Z,68.95
2022-10-24T14:48:41.218Z,69.06
2022-10-24T14:49:41.203Z,69.25
2022-10-24T14:50:41.194Z,68.95
2022-10-24T14:51:41.283Z,68.92
2022-10-24T14:52:41.175Z,69.02
2022-10-24T14:53:41.165Z,69.02
2022-10-24T14:54:41.153Z,69.35
2022-10-24T14:55:41.134Z,69.22
2022-10-24T14:56:41.147Z,69.02
2022-10-24T14:57:41.113Z,69.02
2022-10-24T14:58:41.103Z,69.15
2022-10-24T14:59:41.089Z,68.92
2022-10-24T15:00:41.082Z,69.62
2022-10-24T15:01:41.138Z,69.32
2022-10-24T15:02:43.209Z,69.06
2022-10-24T15:03:41.059Z,69.25
2022-10-24T15:04:41.039Z,69.76
2022-10-24T15:05:41.021Z,69.45
2022-10-24T15:06:41.030Z,69.59
2022-10-24T15:07:52.380Z,70.29
2022-10-24T15:09:40.983Z,70.19
2022-10-24T15:10:40.972Z,70.06
2022-10-24T15:11:40.984Z,70.39
2022-10-24T15:12:40.948Z,69.56
2022-10-24T15:13:40.938Z,70.50
2022-10-24T15:14:40.920Z,70.70
2022-10-24T15:15:40.943Z,70.50
2022-10-24T15:16:40.915Z,70.39
2022-10-24T15:17:40.887Z,70.70
2022-10-24T15:18:40.900Z,70.79
2022-10-24T15:19:40.864Z,71.09
2022-10-24T15:20:40.864Z,71.00
2022-10-24T15:21:40.847Z,70.89
2022-10-24T15:22:40.850Z,70.93
2022-10-24T15:23:40.825Z,71.20
2022-10-24T15:24:44.111Z,71.09
2022-10-24T15:25:42.997Z,71.30
2022-10-24T15:26:40.875Z,71.09
2022-10-24T15:27:40.787Z,71.00
2022-10-24T15:28:40.763Z,71.00
2022-10-24T15:29:40.766Z,71.50
2022-10-24T15:30:40.760Z,71.30
2022-10-24T15:31:40.746Z,71.33
2022-10-24T15:32:40.730Z,71.43
2022-10-24T15:34:40.722Z,71.53
2022-10-24T15:35:40.686Z,71.63
2022-10-24T15:36:40.813Z,71.53
2022-10-24T15:37:40.662Z,71.53
2022-10-24T15:38:41.429Z,71.33
2022-10-24T15:39:40.641Z,72.03
2022-10-24T15:40:40.634Z,72.14
2022-10-24T15:41:40.819Z,71.67
2022-10-24T15:42:40.661Z,71.53
2022-10-24T15:43:40.626Z,71.83
2022-10-24T15:44:40.582Z,71.63
2022-10-24T15:45:40.571Z,71.63
2022-10-24T15:46:40.570Z,72.07
2022-10-24T15:47:40.557Z,72.27
2022-10-24T15:48:40.544Z,72.74
2022-10-24T15:49:40.529Z,72.47
2022-10-24T15:50:40.541Z,72.97
2022-10-24T15:51:41.835Z,72.97
2022-10-24T15:52:40.511Z,72.88
2022-10-24T15:53:40.480Z,72.97
2022-10-24T15:54:40.477Z,72.88
2022-10-24T15:55:40.471Z,73.28
2022-10-24T15:56:40.661Z,73.08
2022-10-24T15:57:40.452Z,72.88
2022-10-24T15:58:40.499Z,72.71
2022-10-24T15:59:40.437Z,73.08
2022-10-24T16:00:40.450Z,73.58
2022-10-24T16:01:40.719Z,72.88
2022-10-24T16:02:40.379Z,72.97
2022-10-24T16:03:40.436Z,73.52
2022-10-24T16:04:40.373Z,72.97
2022-10-24T16:05:40.351Z,73.01
2022-10-24T16:06:40.373Z,72.71
2022-10-24T16:07:40.342Z,72.81
2022-10-24T16:08:40.314Z,73.32
2022-10-24T16:09:40.314Z,72.71
2022-10-24T16:10:40.298Z,73.32
2022-10-24T16:11:40.302Z,73.01
2022-10-24T16:12:40.275Z,73.11
2022-10-24T16:13:40.254Z,73.52
2022-10-24T16:14:40.251Z,73.01
2022-10-24T16:15:40.255Z,73.21
2022-10-24T16:16:40.242Z,73.41
2022-10-24T16:17:40.221Z,73.01
2022-10-24T16:18:40.222Z,72.71
2022-10-24T16:19:40.194Z,72.91
2022-10-24T16:20:40.176Z,73.52
2022-10-24T16:21:40.185Z,73.52
2022-10-24T16:22:40.175Z,72.91
2022-10-24T16:23:40.220Z,73.01
2022-10-24T16:24:40.133Z,72.85
2022-10-24T16:25:40.122Z,72.91
2022-10-24T16:26:40.122Z,73.65
2022-10-24T16:27:40.097Z,72.81
2022-10-24T16:28:40.093Z,73.61
2022-10-24T16:29:40.081Z,73.35
2022-10-24T16:30:40.067Z,73.65
2022-10-24T16:31:40.071Z,73.65
2022-10-24T16:32:40.055Z,73.45
2022-10-24T16:33:40.027Z,73.65
2022-10-24T16:34:40.023Z,73.55
2022-10-24T16:35:40.017Z,73.35
2022-10-24T16:36:40.007Z,73.55
2022-10-24T16:37:39.986Z,73.55
2022-10-24T16:38:40.001Z,73.55
2022-10-24T16:39:39.967Z,73.45
2022-10-24T16:41:39.955Z,73.75
2022-10-24T16:42:39.924Z,73.85
2022-10-24T16:43:41.946Z,73.45
2022-10-24T16:44:39.922Z,73.75
2022-10-24T16:45:39.901Z,73.35
2022-10-24T16:46:39.909Z,73.55
2022-10-24T16:47:39.878Z,73.65
2022-10-24T16:48:39.856Z,73.85
2022-10-24T16:49:39.854Z,74.49
2022-10-24T16:50:39.841Z,74.35
2022-10-24T16:51:43.198Z,73.75
2022-10-24T16:52:39.811Z,73.48
2022-10-24T16:53:39.807Z,73.65
2022-10-24T16:54:39.816Z,73.45
2022-10-24T16:55:39.784Z,73.65
2022-10-24T16:56:39.784Z,73.85
2022-10-24T16:57:39.765Z,73.85
2022-10-24T16:58:39.745Z,73.95
2022-10-24T16:59:39.737Z,73.85
2022-10-24T17:00:39.763Z,73.75
2022-10-24T17:01:39.848Z,73.95
2022-10-24T17:02:39.712Z,73.45
2022-10-24T17:03:39.701Z,74.39
2022-10-24T17:04:39.689Z,74.55
2022-10-24T17:05:39.779Z,74.35
2022-10-24T17:06:39.692Z,74.46
2022-10-24T17:07:39.654Z,74.39
2022-10-24T17:08:39.640Z,74.35
2022-10-24T17:09:39.622Z,74.66
2022-10-24T17:10:39.632Z,74.96
2022-10-24T17:11:45.425Z,74.96
2022-10-24T17:12:40.605Z,74.76
2022-10-24T17:13:39.585Z,74.76
2022-10-24T17:14:39.570Z,74.46
2022-10-24T17:15:39.559Z,74.46
2022-10-24T17:16:39.561Z,74.96
2022-10-24T17:17:39.530Z,74.96
2022-10-24T17:18:39.523Z,74.35
2022-10-24T17:19:39.516Z,74.96
2022-10-24T17:20:39.627Z,74.35
2022-10-24T17:21:39.509Z,74.76
2022-10-24T17:22:39.487Z,74.46
2022-10-24T17:23:39.466Z,74.59
2022-10-24T17:24:39.458Z,74.66
2022-10-24T17:25:39.451Z,74.96
2022-10-24T17:26:39.457Z,74.90
2022-10-24T17:27:39.437Z,74.46
2022-10-24T17:28:39.413Z,74.49
2022-10-24T17:29:39.397Z,74.59
2022-10-24T17:30:39.538Z,74.90
2022-10-24T17:31:39.387Z,74.69
2022-10-24T17:32:39.367Z,74.99
2022-10-24T17:33:39.358Z,75.40
2022-10-24T17:34:39.380Z,74.99
2022-10-24T17:35:39.329Z,75.50
2022-10-24T17:36:39.330Z,75.40
2022-10-24T17:37:39.307Z,75.70
2022-10-24T17:38:39.300Z,75.20
2022-10-24T17:39:41.726Z,75.90
2022-10-24T17:40:40.277Z,75.30
2022-10-24T17:41:39.279Z,75.30
2022-10-24T17:42:39.282Z,75.63
2022-10-24T17:43:39.246Z,75.80
2022-10-24T17:44:39.232Z,75.60
2022-10-24T17:45:39.217Z,76.51
2022-10-24T17:46:39.224Z,76.10
2022-10-24T17:47:39.270Z,76.10
2022-10-24T17:48:39.182Z,75.30
2022-10-24T17:49:39.170Z,75.90
2022-10-24T17:50:39.158Z,75.60
2022-10-24T17:51:39.168Z,75.56
2022-10-24T17:52:39.148Z,76.31
2022-10-24T17:53:39.130Z,76.40
2022-10-24T17:54:43.465Z,76.37
2022-10-24T17:55:46.252Z,76.10
2022-10-24T17:56:40.105Z,76.51
2022-10-24T17:57:39.089Z,76.10
2022-10-24T17:58:39.099Z,75.70
2022-10-24T17:59:39.061Z,75.50
2022-10-24T18:00:39.274Z,75.80
2022-10-24T18:01:39.180Z,75.80
2022-10-24T18:02:39.023Z,76.27
2022-10-24T18:03:39.021Z,76.51
2022-10-24T18:04:39.009Z,76.40
2022-10-24T18:05:39.166Z,76.00
2022-10-24T18:06:42.233Z,75.90
2022-10-24T18:07:38.991Z,76.10
2022-10-24T18:08:38.976Z,76.20
2022-10-24T18:09:38.957Z,76.10
2022-10-24T18:10:38.944Z,76.40
2022-10-24T18:11:38.930Z,76.81
2022-10-24T18:12:38.926Z,76.61
2022-10-24T18:13:38.913Z,76.40
2022-10-24T18:14:38.923Z,76.61
2022-10-24T18:15:38.884Z,76.51
2022-10-24T18:16:38.882Z,76.24
2022-10-24T18:17:38.855Z,76.54
2022-10-24T18:18:38.881Z,76.81
2022-10-24T18:19:38.835Z,76.95
2022-10-24T18:20:38.831Z,77.15
2022-10-24T18:21:38.830Z,77.01
2022-10-24T18:22:38.795Z,77.25
2022-10-24T18:23:38.788Z,77.35
2022-10-24T18:24:38.774Z,77.45
2022-10-24T18:25:38.787Z,76.84
2022-10-24T18:26:38.773Z,77.21
2022-10-24T18:27:38.746Z,77.25
2022-10-24T18:28:38.730Z,77.25
2022-10-24T18:29:38.726Z,77.25
2022-10-24T18:30:38.732Z,77.35
2022-10-24T18:31:38.714Z,77.31
2022-10-24T18:32:38.686Z,77.04
2022-10-24T18:33:39.395Z,77.04
2022-10-24T18:34:38.670Z,77.15
2022-10-24T18:35:38.662Z,77.15
2022-10-24T18:36:38.657Z,77.31
2022-10-24T18:37:38.722Z,77.45
2022-10-24T18:38:38.623Z,77.55
2022-10-24T18:39:38.614Z,77.66
2022-10-24T18:40:38.604Z,77.04
2022-10-24T18:41:38.606Z,78.36
2022-10-24T18:42:38.578Z,77.25
2022-10-24T18:43:38.563Z,77.55
2022-10-24T18:44:38.549Z,77.66
2022-10-24T18:45:38.539Z,77.45
2022-10-24T18:46:38.580Z,77.66
2022-10-24T18:47:38.518Z,77.66
2022-10-24T18:48:38.512Z,77.55
2022-10-24T18:49:38.491Z,77.75
2022-10-24T18:50:38.495Z,77.35
2022-10-24T18:51:38.511Z,77.86
2022-10-24T18:52:38.461Z,78.26
2022-10-24T18:53:38.449Z,78.26
2022-10-24T18:54:38.450Z,78.16
2022-10-24T18:55:38.436Z,78.66
2022-10-24T18:56:38.431Z,78.46
2022-10-24T18:57:38.406Z,78.66
2022-10-24T18:58:38.392Z,78.36
2022-10-24T18:59:38.391Z,77.86
2022-10-24T19:00:38.423Z,78.56
2022-10-24T19:01:38.501Z,78.50
2022-10-24T19:02:38.450Z,78.90
2022-10-24T19:03:38.336Z,79.00
2022-10-24T19:04:38.325Z,78.59
2022-10-24T19:05:38.314Z,78.80
2022-10-24T19:06:38.333Z,79.30
2022-10-24T19:07:38.302Z,79.10
2022-10-24T19:08:38.288Z,79.50
2022-10-24T19:09:38.275Z,79.71
2022-10-24T19:10:38.263Z,79.81
2022-10-24T19:11:38.266Z,80.15
2022-10-24T19:12:38.259Z,79.74
2022-10-24T19:13:38.222Z,79.85
2022-10-24T19:14:38.212Z,80.21
2022-10-24T19:15:38.200Z,80.65
2022-10-24T19:16:38.204Z,80.31
2022-10-24T19:17:38.178Z,80.85
2022-10-24T19:18:38.197Z,80.41
2022-10-24T19:19:38.182Z,80.96
2022-10-24T19:20:38.159Z,80.55
2022-10-24T19:21:38.153Z,80.55
2022-10-24T19:22:38.176Z,80.96
2022-10-24T19:23:38.121Z,80.35
2022-10-24T19:24:38.100Z,80.55
2022-10-24T19:25:38.112Z,80.45